Camp Johnson, Vermont
Current Conditions -  °F | °C
As of 5:54 AM on Wednesday 26 Nov 2014 (Local Time) from KBTV Reporting Station
Broken Clouds Broken Clouds  
Wind Chill: 32°   Ceiling: 18000
Heat Index: 37°   Visibility: 10mi
Dew Point: 22°   Wind: 7mph
Humidity: 54%   Direction: 320°NW
Pressure: 30.22"   Gusts: NA
Location:  44.5489°N, 73.1859°W
Report Text: KBTV 261054Z 32006KT 10SM SCT048 BKN180 03/M06 A3022 RMK AO2 SLP236 T00281056
Loading
Personal Weather Stations






























Interactive Weather Map New forecast layout! Learn more

10-Day Weather Forecast

Advertisements
Track Severe Weather on mobile